createdAt,value
2019-05-23T00:02:42.358Z,37.30
2019-05-23T00:05:33.708Z,37.37
2019-05-23T00:08:24.763Z,37.35
2019-05-23T00:10:58.165Z,37.36
2019-05-23T00:13:49.143Z,37.42
2019-05-23T00:16:25.495Z,37.43
2019-05-23T00:18:58.812Z,37.40
2019-05-23T00:21:32.360Z,37.41
2019-05-23T00:24:05.741Z,37.39
2019-05-23T00:26:39.089Z,37.37
2019-05-23T00:29:12.454Z,37.32
2019-05-23T00:31:45.858Z,37.36
2019-05-23T00:34:19.610Z,37.33
2019-05-23T00:36:52.932Z,37.32
2019-05-23T00:39:26.279Z,37.32
2019-05-23T00:41:59.618Z,37.31
2019-05-23T00:44:33.015Z,37.28
2019-05-23T00:47:06.357Z,36.87
2019-05-23T00:49:39.699Z,37.10
2019-05-23T00:52:13.001Z,37.13
2019-05-23T00:54:46.360Z,37.17
2019-05-23T00:57:19.678Z,37.20
2019-05-23T00:59:53.073Z,36.97
2019-05-23T01:02:26.368Z,37.15
2019-05-23T01:04:59.738Z,37.16
2019-05-23T01:07:33.321Z,37.17
2019-05-23T01:10:06.939Z,37.18
2019-05-23T01:12:41.309Z,37.20
2019-05-23T01:15:15.206Z,37.18
2019-05-23T01:17:49.429Z,37.19
2019-05-23T01:20:22.752Z,37.18
2019-05-23T01:22:56.228Z,37.18
2019-05-23T01:25:29.791Z,37.19
2019-05-23T01:28:03.096Z,36.88
2019-05-23T01:30:36.278Z,37.09
2019-05-23T01:33:09.586Z,37.11
2019-05-23T01:35:42.955Z,37.12
2019-05-23T01:38:16.263Z,37.19
2019-05-23T01:40:49.974Z,37.13
2019-05-23T01:43:23.307Z,37.22
2019-05-23T01:45:56.815Z,37.17
2019-05-23T01:48:30.185Z,37.20
2019-05-23T01:51:03.537Z,37.21
2019-05-23T01:53:36.858Z,37.18
2019-05-23T01:56:10.234Z,37.19
2019-05-23T01:58:43.549Z,36.86
2019-05-23T02:01:16.753Z,37.07
2019-05-23T02:03:50.063Z,37.13
2019-05-23T02:06:23.401Z,37.13
2019-05-23T02:08:56.721Z,37.16
2019-05-23T02:11:30.072Z,37.18
2019-05-23T02:14:03.946Z,37.17
2019-05-23T02:16:37.302Z,37.19
2019-05-23T02:19:13.672Z,37.21
2019-05-23T02:21:45.625Z,37.19
2019-05-23T02:24:18.919Z,37.15
2019-05-23T02:26:52.254Z,36.61
2019-05-23T02:29:25.561Z,36.95
2019-05-23T02:31:58.920Z,36.99
2019-05-23T02:34:32.224Z,37.09
2019-05-23T02:37:05.649Z,37.06
2019-05-23T02:39:38.929Z,37.04
2019-05-23T02:42:12.310Z,37.07
2019-05-23T02:44:45.895Z,37.10
2019-05-23T02:47:20.257Z,37.10
2019-05-23T02:49:53.551Z,36.56
2019-05-23T02:52:42.120Z,36.85
2019-05-23T02:55:21.859Z,36.45
2019-05-23T02:57:57.144Z,36.77
2019-05-23T03:00:54.439Z,36.91
2019-05-23T03:03:24.150Z,36.47
2019-05-23T03:05:57.552Z,36.79
2019-05-23T03:08:30.858Z,36.46
2019-05-23T03:11:12.991Z,36.77
2019-05-23T03:13:46.413Z,36.86
2019-05-23T03:16:21.406Z,36.91
2019-05-23T03:18:58.126Z,36.94
2019-05-23T03:21:31.540Z,36.96
2019-05-23T03:24:04.897Z,37.00
2019-05-23T03:26:50.490Z,37.01
2019-05-23T03:29:23.801Z,37.05
2019-05-23T03:31:57.377Z,36.59
2019-05-23T03:34:30.730Z,36.84
2019-05-23T03:37:04.017Z,36.93
2019-05-23T03:39:37.893Z,36.97
2019-05-23T03:42:11.212Z,36.99
2019-05-23T03:44:45.305Z,36.97
2019-05-23T03:47:18.691Z,37.00
2019-05-23T03:49:52.003Z,36.98
2019-05-23T03:52:25.986Z,37.02
2019-05-23T03:54:59.328Z,37.05
2019-05-23T03:57:32.633Z,37.06
2019-05-23T04:00:10.751Z,37.04
2019-05-23T04:02:44.073Z,36.79
2019-05-23T04:05:17.404Z,36.93
2019-05-23T04:07:50.704Z,36.82
2019-05-23T04:10:24.044Z,36.91
2019-05-23T04:12:57.338Z,36.96
2019-05-23T04:15:30.667Z,37.00
2019-05-23T04:18:03.977Z,36.96
2019-05-23T04:20:38.263Z,37.02
2019-05-23T04:23:11.594Z,36.58
2019-05-23T04:25:44.939Z,36.83
2019-05-23T04:28:18.321Z,36.92
2019-05-23T04:30:51.669Z,36.95
2019-05-23T04:33:24.968Z,36.99
2019-05-23T04:35:58.317Z,37.00
2019-05-23T04:38:35.879Z,37.02
2019-05-23T04:41:06.631Z,37.06
2019-05-23T04:43:40.998Z,37.07
2019-05-23T04:46:14.350Z,37.11
2019-05-23T04:48:47.697Z,37.10
2019-05-23T04:51:21.045Z,37.09
2019-05-23T04:53:54.413Z,36.65
2019-05-23T04:56:27.758Z,36.88
2019-05-23T04:59:01.831Z,36.97
2019-05-23T05:01:35.198Z,37.02
2019-05-23T05:04:08.339Z,37.04
2019-05-23T05:06:41.678Z,37.09
2019-05-23T05:09:14.811Z,36.59
2019-05-23T05:11:48.202Z,37.00
2019-05-23T05:14:21.539Z,37.22
2019-05-23T05:16:54.872Z,37.24
2019-05-23T05:19:28.213Z,36.74
2019-05-23T05:22:01.559Z,36.94
2019-05-23T05:24:34.936Z,36.52
2019-05-23T05:27:08.323Z,37.02
2019-05-23T05:29:41.636Z,37.17
2019-05-23T05:32:15.016Z,37.19
2019-05-23T05:34:48.368Z,37.24
2019-05-23T05:37:21.842Z,37.30
2019-05-23T05:39:55.019Z,37.34
2019-05-23T05:42:28.703Z,37.55
2019-05-23T05:45:02.046Z,37.58
2019-05-23T05:47:35.496Z,37.34
2019-05-23T05:50:09.265Z,37.60
2019-05-23T05:52:43.766Z,37.65
2019-05-23T05:55:17.055Z,37.61
2019-05-23T05:57:50.409Z,37.57
2019-05-23T06:00:23.993Z,37.53
2019-05-23T06:03:04.614Z,37.73
2019-05-23T06:05:33.731Z,37.71
2019-05-23T06:08:07.200Z,37.53
2019-05-23T06:10:40.572Z,37.39
2019-05-23T06:13:13.923Z,37.32
2019-05-23T06:15:48.518Z,37.09
2019-05-23T06:18:21.902Z,36.91
2019-05-23T06:20:55.241Z,36.91
2019-05-23T06:23:29.077Z,37.11
2019-05-23T06:26:02.404Z,36.92
2019-05-23T06:28:35.841Z,36.91
2019-05-23T06:31:09.457Z,36.97
2019-05-23T06:33:42.800Z,36.80
2019-05-23T06:36:16.123Z,36.94
2019-05-23T06:38:49.685Z,36.34
2019-05-23T06:41:23.432Z,36.67
2019-05-23T06:43:56.919Z,36.52
2019-05-23T06:46:30.247Z,36.44
2019-05-23T06:49:03.744Z,36.39
2019-05-23T06:51:37.060Z,36.35
2019-05-23T06:54:10.400Z,36.30
2019-05-23T06:56:44.950Z,36.25
2019-05-23T06:59:18.447Z,35.68
2019-05-23T07:01:51.743Z,36.05
2019-05-23T07:04:25.109Z,36.27
2019-05-23T07:06:59.969Z,35.98
2019-05-23T07:09:33.294Z,36.05
2019-05-23T07:12:08.263Z,35.78
2019-05-23T07:14:41.600Z,36.17
2019-05-23T07:17:15.281Z,36.41
2019-05-23T07:19:48.599Z,36.28
2019-05-23T07:22:21.952Z,36.26
2019-05-23T07:24:58.607Z,36.78
2019-05-23T07:27:30.306Z,36.24
2019-05-23T07:30:21.485Z,36.37
2019-05-23T07:32:54.792Z,36.43
2019-05-23T07:35:28.126Z,36.47
2019-05-23T07:38:03.752Z,36.54
2019-05-23T07:40:38.168Z,36.41
2019-05-23T07:43:11.482Z,36.01
2019-05-23T07:45:44.812Z,36.41
2019-05-23T07:48:18.212Z,36.45
2019-05-23T07:50:51.631Z,36.45
2019-05-23T07:53:24.938Z,35.60
2019-05-23T07:55:58.322Z,36.07
2019-05-23T07:58:31.640Z,35.58
2019-05-23T08:01:05.322Z,36.16
2019-05-23T08:03:38.533Z,36.39
2019-05-23T08:06:11.910Z,35.85
2019-05-23T08:08:47.291Z,36.11
2019-05-23T08:11:20.635Z,35.80
2019-05-23T08:13:54.238Z,36.11
2019-05-23T08:16:27.671Z,36.05
2019-05-23T08:19:02.041Z,36.09
2019-05-23T08:21:35.377Z,36.17
2019-05-23T08:24:08.682Z,36.51
2019-05-23T08:26:42.118Z,35.38
2019-05-23T08:29:25.890Z,35.63
2019-05-23T08:31:50.636Z,35.78
2019-05-23T08:34:39.916Z,35.42
2019-05-23T08:36:59.155Z,35.67
2019-05-23T08:39:32.490Z,35.24
2019-05-23T08:42:05.873Z,35.56
2019-05-23T08:44:39.155Z,35.78
2019-05-23T08:47:12.505Z,35.83
2019-05-23T08:49:45.849Z,35.74
2019-05-23T08:52:19.201Z,35.76
2019-05-23T08:54:56.169Z,35.72
2019-05-23T08:57:31.275Z,35.88
2019-05-23T09:00:06.123Z,35.09
2019-05-23T09:02:41.073Z,34.99
2019-05-23T09:05:14.484Z,35.06
2019-05-23T09:07:47.803Z,34.92
2019-05-23T09:10:21.277Z,35.05
2019-05-23T09:12:54.576Z,35.12
2019-05-23T09:15:27.970Z,35.05
2019-05-23T09:18:01.336Z,34.88
2019-05-23T09:20:34.628Z,34.90
2019-05-23T09:23:08.096Z,34.54
2019-05-23T09:25:41.512Z,34.02
2019-05-23T09:28:14.854Z,34.31
2019-05-23T09:30:48.257Z,33.59
2019-05-23T09:33:21.553Z,33.98
2019-05-23T09:35:54.912Z,33.93
2019-05-23T09:38:28.216Z,33.78
2019-05-23T09:41:01.584Z,33.77
2019-05-23T09:43:34.923Z,33.57
2019-05-23T09:46:08.493Z,33.71
2019-05-23T09:48:42.006Z,33.86
2019-05-23T09:51:15.406Z,33.95
2019-05-23T09:53:49.215Z,34.05
2019-05-23T09:56:22.340Z,34.10
2019-05-23T09:58:55.651Z,33.41
2019-05-23T10:01:29.043Z,33.83
2019-05-23T10:04:02.363Z,34.12
2019-05-23T10:06:35.660Z,34.21
2019-05-23T10:09:09.000Z,34.17
2019-05-23T10:11:42.526Z,33.99
2019-05-23T10:14:16.074Z,34.31
2019-05-23T10:16:49.391Z,34.36
2019-05-23T10:19:22.755Z,34.49
2019-05-23T10:21:55.870Z,34.81
2019-05-23T10:24:29.212Z,34.81
2019-05-23T10:27:02.526Z,34.65
2019-05-23T10:29:35.859Z,34.84
2019-05-23T10:32:09.196Z,34.79
2019-05-23T10:34:42.569Z,34.74
2019-05-23T10:37:15.941Z,34.84
2019-05-23T10:39:51.844Z,34.10
2019-05-23T10:42:25.159Z,34.64
2019-05-23T10:44:58.518Z,34.80
2019-05-23T10:47:32.142Z,34.90
2019-05-23T10:50:08.980Z,34.80
2019-05-23T10:52:41.515Z,34.96
2019-05-23T10:55:14.909Z,34.92
2019-05-23T10:57:48.999Z,34.91
2019-05-23T11:00:23.944Z,34.81
2019-05-23T11:02:58.905Z,35.02
2019-05-23T11:05:32.208Z,34.96
2019-05-23T11:08:05.535Z,34.83
2019-05-23T11:10:38.910Z,34.79
2019-05-23T11:13:12.224Z,34.88
2019-05-23T11:15:45.535Z,34.93
2019-05-23T11:18:18.928Z,34.93
2019-05-23T11:20:52.271Z,34.32
2019-05-23T11:23:25.591Z,34.60
2019-05-23T11:26:01.399Z,34.52
2019-05-23T11:28:35.246Z,34.74
2019-05-23T11:31:08.555Z,34.77
2019-05-23T11:33:41.882Z,34.56
2019-05-23T11:36:31.796Z,34.47
2019-05-23T11:38:51.719Z,34.64
2019-05-23T11:41:25.145Z,34.60
2019-05-23T11:43:58.415Z,34.26
2019-05-23T11:46:31.743Z,34.74
2019-05-23T11:49:05.212Z,34.53
2019-05-23T11:51:38.536Z,34.57
2019-05-23T11:54:12.058Z,34.43
2019-05-23T11:56:45.392Z,34.61
2019-05-23T11:59:18.878Z,34.67
2019-05-23T12:01:52.289Z,34.16
2019-05-23T12:04:25.625Z,34.43
2019-05-23T12:06:58.964Z,34.50
2019-05-23T12:09:32.259Z,34.50
2019-05-23T12:12:05.605Z,34.59
2019-05-23T12:14:39.557Z,34.21
2019-05-23T12:17:12.900Z,34.40
2019-05-23T12:19:46.170Z,34.50
2019-05-23T12:22:19.623Z,34.49
2019-05-23T12:24:52.899Z,34.43
2019-05-23T12:27:26.402Z,34.69
2019-05-23T12:29:59.790Z,33.94
2019-05-23T12:32:33.141Z,34.39
2019-05-23T12:35:10.884Z,34.54
2019-05-23T12:37:41.495Z,34.54
2019-05-23T12:40:14.829Z,34.61
2019-05-23T12:42:48.170Z,34.20
2019-05-23T12:45:21.845Z,34.37
2019-05-23T12:47:55.231Z,34.53
2019-05-23T12:50:28.579Z,34.48
2019-05-23T12:53:01.936Z,34.36
2019-05-23T12:55:35.273Z,34.57
2019-05-23T12:58:08.608Z,34.49
2019-05-23T13:00:41.800Z,34.54
2019-05-23T13:03:15.197Z,34.56
2019-05-23T13:05:48.512Z,34.57
2019-05-23T13:08:21.928Z,34.62
2019-05-23T13:10:55.237Z,34.07
2019-05-23T13:13:28.576Z,34.42
2019-05-23T13:16:01.973Z,34.53
2019-05-23T13:18:35.308Z,34.58
2019-05-23T13:21:08.631Z,34.49
2019-05-23T13:23:42.050Z,34.63
2019-05-23T13:26:15.561Z,34.34
2019-05-23T13:28:48.890Z,33.48
2019-05-23T13:31:22.227Z,32.41
2019-05-23T13:33:55.530Z,32.24
2019-05-23T13:36:28.954Z,32.02
2019-05-23T13:39:02.376Z,30.62
2019-05-23T13:41:37.069Z,30.17
2019-05-23T13:44:10.424Z,29.86
2019-05-23T13:46:43.775Z,29.86
2019-05-23T13:49:17.102Z,30.25
2019-05-23T13:51:50.578Z,29.33
2019-05-23T13:54:24.029Z,29.01
2019-05-23T13:56:57.939Z,28.20
2019-05-23T13:59:31.476Z,27.25
2019-05-23T14:02:04.841Z,27.52
2019-05-23T14:04:38.207Z,27.00
2019-05-23T14:07:11.599Z,26.95
2019-05-23T14:09:45.149Z,26.62
2019-05-23T14:12:21.411Z,26.71
2019-05-23T14:14:53.661Z,27.03
2019-05-23T14:17:27.210Z,26.40
2019-05-23T14:20:00.581Z,26.18
2019-05-23T14:22:34.200Z,26.57
2019-05-23T14:25:07.561Z,26.60
2019-05-23T14:27:40.960Z,26.45
2019-05-23T14:30:15.283Z,25.72
2019-05-23T14:32:49.022Z,24.63
2019-05-23T14:35:22.360Z,24.32
2019-05-23T14:37:55.993Z,25.10
2019-05-23T14:40:29.309Z,25.39
2019-05-23T14:43:02.678Z,25.83
2019-05-23T14:45:36.081Z,26.31
2019-05-23T14:48:12.270Z,27.22
2019-05-23T14:50:44.457Z,28.28
2019-05-23T14:53:17.796Z,28.11
2019-05-23T14:55:51.143Z,28.42
2019-05-23T14:58:24.490Z,28.99
2019-05-23T15:00:57.813Z,28.92
2019-05-23T15:03:35.258Z,29.06
2019-05-23T15:06:06.441Z,28.23
2019-05-23T15:08:50.365Z,27.89
2019-05-23T15:11:15.075Z,28.63
2019-05-23T15:13:48.495Z,29.32
2019-05-23T15:16:21.981Z,29.65
2019-05-23T15:18:55.541Z,28.41
2019-05-23T15:21:28.945Z,28.09
2019-05-23T15:24:02.780Z,28.08
2019-05-23T15:26:36.100Z,28.42
2019-05-23T15:29:11.160Z,28.45
2019-05-23T15:32:00.602Z,28.99
2019-05-23T15:34:19.542Z,28.74
2019-05-23T15:36:52.886Z,28.54
2019-05-23T15:39:26.511Z,28.65
2019-05-23T15:41:59.827Z,28.77
2019-05-23T15:44:33.455Z,28.96
2019-05-23T15:47:06.944Z,28.82
2019-05-23T15:49:40.270Z,29.06
2019-05-23T15:52:13.640Z,29.19
2019-05-23T15:54:47.655Z,29.15
2019-05-23T15:57:21.482Z,29.11
2019-05-23T15:59:54.945Z,29.09
2019-05-23T16:02:28.328Z,29.19
2019-05-23T16:05:01.626Z,29.33
2019-05-23T16:07:35.033Z,29.31
2019-05-23T16:10:08.370Z,29.65
2019-05-23T16:12:41.757Z,29.78
2019-05-23T16:15:15.084Z,29.90
2019-05-23T16:17:48.439Z,29.77
2019-05-23T16:20:21.786Z,29.36
2019-05-23T16:22:55.359Z,29.81
2019-05-23T16:25:28.628Z,29.86
2019-05-23T16:28:02.222Z,30.16
2019-05-23T16:30:35.695Z,30.38
2019-05-23T16:33:09.126Z,30.67
2019-05-23T16:35:44.151Z,30.81
2019-05-23T16:38:17.466Z,30.63
2019-05-23T16:40:50.845Z,30.46
2019-05-23T16:43:24.210Z,30.40
2019-05-23T16:45:59.198Z,30.33
2019-05-23T16:48:33.050Z,29.99
2019-05-23T16:51:06.960Z,30.12
2019-05-23T16:53:40.282Z,30.17
2019-05-23T16:56:13.651Z,30.21
2019-05-23T16:58:47.038Z,30.13
2019-05-23T17:01:24.525Z,30.19
2019-05-23T17:03:57.780Z,30.13
2019-05-23T17:06:30.423Z,30.29
2019-05-23T17:09:05.280Z,29.94
2019-05-23T17:11:38.747Z,30.14
2019-05-23T17:14:12.095Z,30.07
2019-05-23T17:16:45.403Z,30.13
2019-05-23T17:19:18.691Z,30.11
2019-05-23T17:21:52.328Z,30.12
2019-05-23T17:24:25.708Z,30.09
2019-05-23T17:26:59.002Z,29.68
2019-05-23T17:29:32.353Z,30.22
2019-05-23T17:32:05.939Z,30.40
2019-05-23T17:34:40.340Z,30.16
2019-05-23T17:37:13.652Z,30.26
2019-05-23T17:39:47.283Z,30.27
2019-05-23T17:42:22.109Z,30.09
2019-05-23T17:44:55.441Z,30.11
2019-05-23T17:47:28.866Z,29.96
2019-05-23T17:50:03.507Z,29.89
2019-05-23T17:52:37.128Z,29.53
2019-05-23T17:55:10.510Z,29.98
2019-05-23T17:57:43.872Z,30.42
2019-05-23T18:00:17.462Z,30.62
2019-05-23T18:02:50.802Z,30.67
2019-05-23T18:05:24.171Z,31.01
2019-05-23T18:07:57.542Z,31.22
2019-05-23T18:10:43.835Z,31.19
2019-05-23T18:13:05.917Z,31.44
2019-05-23T18:15:39.309Z,31.43
2019-05-23T18:18:12.665Z,31.59
2019-05-23T18:20:45.998Z,31.96
2019-05-23T18:23:19.327Z,32.04
2019-05-23T18:25:53.220Z,31.99
2019-05-23T18:28:27.419Z,30.93
2019-05-23T18:31:06.001Z,30.24
2019-05-23T18:33:37.505Z,30.35
2019-05-23T18:36:11.157Z,29.79
2019-05-23T18:38:45.135Z,30.28
2019-05-23T18:41:18.467Z,30.09
2019-05-23T18:43:51.818Z,29.94
2019-05-23T18:46:25.006Z,29.91
2019-05-23T18:48:58.433Z,29.71
2019-05-23T18:51:32.045Z,29.72
2019-05-23T18:54:05.548Z,29.70
2019-05-23T18:56:39.115Z,29.73
2019-05-23T18:59:12.611Z,29.68
2019-05-23T19:01:46.023Z,29.96
2019-05-23T19:04:19.359Z,30.09
2019-05-23T19:06:52.730Z,30.10
2019-05-23T19:09:26.073Z,30.22
2019-05-23T19:11:59.500Z,30.26
2019-05-23T19:14:32.614Z,30.30
2019-05-23T19:17:07.016Z,30.48
2019-05-23T19:19:40.495Z,30.71
2019-05-23T19:22:14.248Z,30.64
2019-05-23T19:24:48.294Z,30.96
2019-05-23T19:27:21.726Z,31.02
2019-05-23T19:29:55.081Z,31.13
2019-05-23T19:32:28.368Z,31.09
2019-05-23T19:35:01.692Z,31.11
2019-05-23T19:37:35.072Z,31.15
2019-05-23T19:40:08.389Z,31.26
2019-05-23T19:42:41.606Z,31.11
2019-05-23T19:45:14.992Z,31.85
2019-05-23T19:47:48.323Z,32.08
2019-05-23T19:50:21.634Z,32.70
2019-05-23T19:52:54.991Z,32.87
2019-05-23T19:55:28.262Z,33.10
2019-05-23T19:58:01.588Z,33.32
2019-05-23T20:00:34.903Z,33.37
2019-05-23T20:03:08.258Z,33.49
2019-05-23T20:05:41.614Z,33.61
2019-05-23T20:08:14.997Z,33.97
2019-05-23T20:10:48.381Z,33.97
2019-05-23T20:13:21.726Z,34.21
2019-05-23T20:15:55.087Z,34.05
2019-05-23T20:18:29.016Z,34.11
2019-05-23T20:21:02.865Z,34.25
2019-05-23T20:23:40.109Z,34.27
2019-05-23T20:26:16.789Z,34.27
2019-05-23T20:28:54.099Z,34.31
2019-05-23T20:31:29.947Z,34.46
2019-05-23T20:34:06.752Z,34.55
2019-05-23T20:36:38.448Z,34.71
2019-05-23T20:39:11.837Z,34.72
2019-05-23T20:41:45.172Z,34.91
2019-05-23T20:44:18.478Z,34.84
2019-05-23T20:46:51.897Z,34.80
2019-05-23T20:49:27.254Z,35.03
2019-05-23T20:52:00.264Z,34.85
2019-05-23T20:54:34.077Z,34.82
2019-05-23T20:57:07.533Z,34.88
2019-05-23T20:59:42.088Z,34.88
2019-05-23T21:02:15.465Z,34.88
2019-05-23T21:04:48.783Z,34.98
2019-05-23T21:07:22.258Z,34.95
2019-05-23T21:09:55.594Z,34.99
2019-05-23T21:12:30.641Z,34.94
2019-05-23T21:15:04.758Z,35.02
2019-05-23T21:17:38.122Z,34.99
2019-05-23T21:20:11.464Z,35.06
2019-05-23T21:22:44.750Z,35.25
2019-05-23T21:25:18.069Z,35.14
2019-05-23T21:27:51.407Z,35.09
2019-05-23T21:30:24.713Z,35.16
2019-05-23T21:32:58.087Z,35.21
2019-05-23T21:35:31.659Z,35.33
2019-05-23T21:38:05.080Z,35.44
2019-05-23T21:40:40.267Z,35.59
2019-05-23T21:43:13.627Z,35.59
2019-05-23T21:45:46.950Z,35.50
2019-05-23T21:48:20.117Z,35.55
2019-05-23T21:50:53.407Z,35.31
2019-05-23T21:53:27.094Z,35.33
2019-05-23T21:56:00.399Z,35.34
2019-05-23T21:58:33.764Z,35.36
2019-05-23T22:01:07.235Z,35.36
2019-05-23T22:03:40.596Z,35.38
2019-05-23T22:06:13.924Z,35.47
2019-05-23T22:08:47.247Z,35.46
2019-05-23T22:11:20.556Z,35.39
2019-05-23T22:13:53.914Z,35.43
2019-05-23T22:16:27.232Z,35.36
2019-05-23T22:19:01.761Z,35.38
2019-05-23T22:21:36.141Z,35.53
2019-05-23T22:24:09.505Z,35.47
2019-05-23T22:26:43.952Z,35.46
2019-05-23T22:29:17.346Z,35.50
2019-05-23T22:31:50.703Z,35.46
2019-05-23T22:34:24.065Z,35.53
2019-05-23T22:36:57.368Z,35.48
2019-05-23T22:39:30.741Z,35.51
2019-05-23T22:42:04.720Z,35.54
2019-05-23T22:44:38.125Z,35.43
2019-05-23T22:47:11.427Z,35.43
2019-05-23T22:49:44.749Z,35.49
2019-05-23T22:52:18.064Z,34.74
2019-05-23T22:54:51.398Z,35.27
2019-05-23T22:57:24.705Z,35.33
2019-05-23T22:59:58.125Z,35.09
2019-05-23T23:02:31.435Z,35.28
2019-05-23T23:05:04.785Z,35.28
2019-05-23T23:07:39.272Z,35.34
2019-05-23T23:10:14.362Z,35.40
2019-05-23T23:12:47.654Z,35.29
2019-05-23T23:15:20.993Z,35.45
2019-05-23T23:17:54.313Z,35.50
2019-05-23T23:20:27.653Z,35.52
2019-05-23T23:23:00.936Z,35.58
2019-05-23T23:25:34.667Z,35.52
2019-05-23T23:28:07.994Z,35.54
2019-05-23T23:30:41.501Z,35.62
2019-05-23T23:33:14.820Z,35.21
2019-05-23T23:35:48.158Z,35.43
2019-05-23T23:38:22.526Z,35.51
2019-05-23T23:40:55.871Z,35.08
2019-05-23T23:43:29.201Z,35.36
2019-05-23T23:46:02.551Z,35.21
2019-05-23T23:48:36.915Z,35.45
2019-05-23T23:51:10.245Z,35.52
2019-05-23T23:53:43.544Z,35.53
2019-05-23T23:56:16.897Z,35.58
2019-05-23T23:58:50.192Z,35.56
